Station Historical Data
Daily Summary for April 15, 2019 Units:  Metric    English   Both
« Previous Day
Next Day »
Daily Weekly Monthly Yearly Custom
  High: Low: Average:
Temperature: -17.8 °C -13.4 °C -10.7 °C
Dew Point: -17.8 °C -14.6 °C -13.6 °C
Humidity: Humidity % 47 % 73 %
Wind Speed: 0 km/h 0 km/h 10.8 km/h
Wind Gust: 0 km/h - -
Wind:- - SSW
Pressure: 0 hPa 34395 hPa -
Precipitation: 0 mm    
Historical Graphs
 
 
Tabular Data for April 15, 2019
Time Temperature Dew Point Pressure Wind Wind Speed Wind Gust Humidity Rainfall Rate (Hourly) solar Conditions
-17.8 °C -17.8 °C 0 hPa Calm     Humidity % 0 mm SolarRadiationWatts/m^2 W/m2 Conditions
00:04 -12.8 °C -13.6 °C 34395 hPa NW 20.9 km/h 16.9 km/h 91 % 0 mm 0.00 W/m2 RA
00:08 -12.7 °C -13.5 °C 34398.4 hPa North 15.6 km/h 10.3 km/h 91 % 0 mm 0.00 W/m2 RA
00:13 -12.7 °C -13.5 °C 34401.8 hPa NNW 10.3 km/h 7.6 km/h 91 % 0 mm 0.00 W/m2 BKN
00:19 -12.7 °C -13.5 °C 34398.4 hPa NNW 10.3 km/h 7.2 km/h 91 % 0 mm 0.00 W/m2 BKN
00:23 -12.7 °C -13.5 °C 34401.8 hPa NW 10.3 km/h 4.7 km/h 91 % 0 mm 0.00 W/m2 BKN
00:28 -12.7 °C -13.5 °C 34401.8 hPa NNW 10.3 km/h 9 km/h 91 % 0 mm 0.00 W/m2 BKN
00:34 -12.7 °C -13.5 °C 34401.8 hPa NNW 9 km/h 6.3 km/h 91 % 0 mm 0.00 W/m2 BKN
00:38 -12.7 °C -13.5 °C 34405.1 hPa NNW 9 km/h 5.5 km/h 91 % 0 mm 0.00 W/m2 BKN
00:43 -12.7 °C -13.5 °C 34405.1 hPa NNW 12.9 km/h 9.3 km/h 91 % 0 mm 0.00 W/m2 BKN
00:48 -12.7 °C -13.5 °C 34405.1 hPa NNW 12.9 km/h 8.5 km/h 91 % 0 mm 0.00 W/m2 BKN
00:54 -12.7 °C -13.5 °C 34405.1 hPa North 10.3 km/h 6.8 km/h 91 % 0 mm 0.00 W/m2 BKN
00:58 -12.8 °C -13.6 °C 34405.1 hPa North 10.3 km/h 7.2 km/h 91 % 0 mm 0.00 W/m2 BKN
01:03 -12.8 °C -13.4 °C 34408.5 hPa North 9 km/h 6 km/h 92 % 0 mm 0.00 W/m2 BKN
01:09 -12.8 °C -13.4 °C 34408.5 hPa North 9 km/h 3.9 km/h 92 % 0 mm 0.00 W/m2 BKN
01:13 -12.8 °C -13.4 °C 34408.5 hPa North 7.7 km/h 4.2 km/h 92 % 0 mm 0.00 W/m2 BKN
01:18 -12.8 °C -13.5 °C 34408.5 hPa NNW 9 km/h 5.6 km/h 92 % 0 mm 0.00 W/m2 BKN
01:24 -12.8 °C -13.5 °C 34408.5 hPa NNW 9 km/h 5 km/h 92 % 0 mm 0.00 W/m2 BKN
01:29 -12.8 °C -13.5 °C 34408.5 hPa NNW 7.7 km/h 4.7 km/h 92 % 0 mm 0.00 W/m2 BKN
01:33 -12.8 °C -13.5 °C 34411.9 hPa NNW 9 km/h 4.3 km/h 92 % 0 mm 0.00 W/m2 BKN
01:39 -12.8 °C -13.5 °C 34415.3 hPa NNW 6 km/h 4.2 km/h 92 % 0 mm 0.00 W/m2 BKN
01:44 -12.8 °C -13.5 °C 34415.3 hPa NNW 6 km/h 3.7 km/h 92 % 0 mm 0.00 W/m2 BKN
01:48 -12.8 °C -13.5 °C 34415.3 hPa NNW 9 km/h 4.2 km/h 92 % 0 mm 0.00 W/m2 BKN
01:54 -12.8 °C -13.5 °C 34418.7 hPa NNW 3.1 km/h 1.6 km/h 92 % 0 mm 0.00 W/m2 BKN
01:59 -12.8 °C -13.5 °C 34418.7 hPa NNW 5.1 km/h 1.6 km/h 92 % 0 mm 0.00 W/m2 BKN
02:04 -12.8 °C -13.5 °C 34418.7 hPa NNW 6 km/h 2.3 km/h 92 % 0 mm 0.00 W/m2 BKN
02:09 -12.8 °C -13.5 °C 34418.7 hPa NNW 6 km/h 3.7 km/h 92 % 0 mm 0.00 W/m2 BKN
02:13 -12.8 °C -13.5 °C 34422.1 hPa NNW 6 km/h 2.9 km/h 92 % 0 mm 0.00 W/m2 BKN
02:18 -12.8 °C -13.5 °C 34422.1 hPa SW 6 km/h 4.7 km/h 92 % 0 mm 0.00 W/m2 BKN
02:23 -12.8 °C -13.4 °C 34425.5 hPa SW 9 km/h 6.3 km/h 93 % 0 mm 0.00 W/m2 BKN
02:28 -12.8 °C -13.4 °C 34425.5 hPa SW 5.1 km/h 1.6 km/h 93 % 0 mm 0.00 W/m2 BKN
02:33 -12.9 °C -13.6 °C 34425.5 hPa SW 9 km/h 3.1 km/h 92 % 0 mm 0.00 W/m2 BKN
02:39 -12.9 °C -13.6 °C 34425.5 hPa WSW 6 km/h 4.7 km/h 92 % 0 mm 0.00 W/m2 BKN
02:43 -12.9 °C -13.6 °C 34422.1 hPa WSW 10.3 km/h 6.8 km/h 92 % 0 mm 0.00 W/m2 BKN
02:48 -12.9 °C -13.7 °C 34422.1 hPa WSW 9 km/h 5.5 km/h 92 % 0 mm 0.00 W/m2 BKN
02:54 -12.9 °C -13.6 °C 34425.5 hPa WSW 10.3 km/h 5.5 km/h 93 % 0 mm 0.00 W/m2 BKN
02:58 -13 °C -13.6 °C 34422.1 hPa WSW 9 km/h 5.5 km/h 93 % 0 mm 0.00 W/m2 BKN
03:03 -13 °C -13.6 °C 34422.1 hPa WSW 6 km/h 3.1 km/h 93 % 0 mm 0.00 W/m2 BKN
03:09 -13.1 °C -13.7 °C 34425.5 hPa WSW 6 km/h 3.7 km/h 93 % 0 mm 0.00 W/m2 BKN
03:13 -13.1 °C -13.7 °C 34422.1 hPa WSW 5.1 km/h 2.3 km/h 93 % 0 mm 0.00 W/m2 BKN
03:18 -13.1 °C -13.7 °C 34428.8 hPa WSW 6 km/h 3.4 km/h 93 % 0 mm 0.00 W/m2 BKN
03:24 -13.1 °C -13.7 °C 34428.8 hPa WSW 6 km/h 2.6 km/h 93 % 0 mm 0.00 W/m2 BKN
03:29 -13.1 °C -13.7 °C 34428.8 hPa Calm     93 % 0 mm 0.00 W/m2 BKN
03:33 -13.1 °C -13.7 °C 34428.8 hPa Calm     93 % 0 mm 0.00 W/m2 BKN
03:39 -13.1 °C -13.7 °C 34425.5 hPa Calm     93 % 0 mm 0.00 W/m2 BKN
03:44 -13.1 °C -13.7 °C 34432.2 hPa Calm     93 % 0 mm 0.00 W/m2 BKN
03:48 -13.1 °C -13.7 °C 34432.2 hPa WSW 6 km/h 3.1 km/h 93 % 0 mm 0.00 W/m2 BKN
03:53 -13.1 °C -13.7 °C 34435.6 hPa WSW 10.3 km/h 7.7 km/h 93 % 0 mm 0.00 W/m2 BKN
03:59 -13.1 °C -13.7 °C 34439 hPa WSW 10.3 km/h 6.3 km/h 93 % 0 mm 0.00 W/m2 BKN
04:04 -13.1 °C -13.7 °C 34442.4 hPa WSW 9 km/h 6 km/h 93 % 0 mm 0.00 W/m2 BKN
04:08 -13.2 °C -13.7 °C 34442.4 hPa SW 12.9 km/h 7.2 km/h 93 % 0 mm 0.00 W/m2 BKN
04:14 -13.2 °C -13.7 °C 34439 hPa SW 10.3 km/h 8.2 km/h 93 % 0 mm 0.00 W/m2 BKN
04:19 -13.2 °C -13.8 °C 34439 hPa SW 12.9 km/h 10.3 km/h 93 % 0 mm 0.00 W/m2 BKN
04:23 -13.2 °C -13.8 °C 34439 hPa WSW 11.9 km/h 6.8 km/h 93 % 0 mm 0.00 W/m2 BKN
04:29 -13.2 °C -13.8 °C 34439 hPa SW 12.9 km/h 11.6 km/h 93 % 0 mm 0.00 W/m2 BKN
04:34 -13.2 °C -13.8 °C 34439 hPa WSW 10.3 km/h 7.7 km/h 93 % 0 mm 0.00 W/m2 BKN
04:39 -13.2 °C -13.8 °C 34439 hPa WSW 11.9 km/h 7.6 km/h 93 % 0 mm 0.00 W/m2 BKN
04:43 -13.2 °C -13.8 °C 34439 hPa SW 10.3 km/h 7.7 km/h 93 % 0 mm 0.00 W/m2 BKN
04:48 -13.2 °C -13.8 °C 34442.4 hPa WSW 9 km/h 2.1 km/h 93 % 0 mm 0.00 W/m2 BKN
04:53 -13.2 °C -13.8 °C 34442.4 hPa WSW 10.3 km/h 5.5 km/h 93 % 0 mm 0.00 W/m2 BKN
04:58 -13.2 °C -13.8 °C 34442.4 hPa SW 9 km/h 5.1 km/h 93 % 0 mm 0.00 W/m2 BKN
05:03 -13.2 °C -13.8 °C 34445.8 hPa SW 9 km/h 4.3 km/h 93 % 0 mm 0.00 W/m2 BKN
05:08 -13.2 °C -13.8 °C 34439 hPa WSW 9 km/h 2.9 km/h 93 % 0 mm 0.00 W/m2 BKN
05:13 -13.2 °C -13.8 °C 34442.4 hPa WSW 12.9 km/h 10.3 km/h 93 % 0 mm 0.00 W/m2 BKN
05:18 -13.2 °C -13.8 °C 34442.4 hPa WSW 15.6 km/h 9.3 km/h 93 % 0 mm 0.00 W/m2 BKN
05:23 -13.2 °C -13.7 °C 34442.4 hPa WSW 9 km/h 6.4 km/h 93 % 0 mm 0.00 W/m2 BKN
05:29 -13.2 °C -13.7 °C 34449.2 hPa WSW 15 km/h 8.9 km/h 93 % 0 mm 0.00 W/m2 BKN
05:33 -13.2 °C -13.7 °C 34445.8 hPa WSW 12.9 km/h 6.3 km/h 93 % 0 mm 0.00 W/m2 BKN
05:38 -13.2 °C -13.8 °C 34449.2 hPa WSW 9 km/h 5.5 km/h 93 % 0 mm 0.00 W/m2 BKN
05:44 -13.2 °C -13.8 °C 34449.2 hPa WSW 10.3 km/h 8.2 km/h 93 % 0 mm 0.00 W/m2 BKN
05:48 -13.2 °C -13.8 °C 34445.8 hPa WSW 15.6 km/h 13.5 km/h 93 % 0 mm 0.00 W/m2 BKN
05:53 -13.2 °C -13.8 °C 34442.4 hPa WSW 10.3 km/h 7.7 km/h 93 % 0 mm 0.00 W/m2 BKN
05:59 -13.3 °C -13.8 °C 34445.8 hPa WSW 12.9 km/h 9.3 km/h 94 % 0 mm 0.00 W/m2 BKN
06:04 -13.3 °C -13.8 °C 34452.6 hPa SW 12.9 km/h 7.7 km/h 94 % 0 mm 0.00 W/m2 BKN
06:08 -13.3 °C -13.8 °C 34449.2 hPa WSW 11.9 km/h 8.5 km/h 94 % 0 mm 0.00 W/m2 BKN
06:14 -13.3 °C -13.8 °C 34449.2 hPa WSW 10.3 km/h 5.5 km/h 94 % 0 mm 0.00 W/m2 BKN
06:19 -13.3 °C -13.8 °C 34452.6 hPa WSW 12.9 km/h 8.2 km/h 94 % 0 mm 0.00 W/m2 BKN
06:23 -13.3 °C -13.8 °C 34452.6 hPa WSW 10.3 km/h 6.8 km/h 94 % 0 mm 0.00 W/m2 BKN
06:29 -13.4 °C -13.9 °C 34449.2 hPa WSW 10.3 km/h 5.5 km/h 93 % 0 mm 0.00 W/m2 BKN
06:34 -13.4 °C -13.9 °C 34459.3 hPa West 9 km/h 3.1 km/h 93 % 0 mm 0.00 W/m2 BKN
06:38 -13.4 °C -13.9 °C 34455.9 hPa WSW 9 km/h 5.6 km/h 93 % 0 mm 0.00 W/m2 BKN
06:44 -13.4 °C -13.8 °C 34455.9 hPa West 12.9 km/h 6.9 km/h 94 % 0 mm 5.00 W/m2 BKN
06:49 -13.4 °C -13.8 °C 34455.9 hPa WSW 12.9 km/h 9.3 km/h 94 % 0 mm 7.00 W/m2 BKN
06:54 -13.4 °C -13.9 °C 34459.3 hPa WSW 10.3 km/h 7.7 km/h 94 % 0 mm 11.00 W/m2 SCT
06:59 -13.4 °C -13.9 °C 34462.7 hPa WSW 10.3 km/h 6 km/h 94 % 0 mm 14.00 W/m2 SCT
07:04 -13.4 °C -13.9 °C 34466.1 hPa WSW 10.3 km/h 6.9 km/h 94 % 0 mm 18.00 W/m2 SCT
07:09 -13.4 °C -13.9 °C 34462.7 hPa WSW 12.9 km/h 8.9 km/h 94 % 0 mm 23.00 W/m2 SCT
07:14 -13.4 °C -13.9 °C 34462.7 hPa WSW 12.9 km/h 10.1 km/h 94 % 0 mm 32.00 W/m2 SCT
07:18 -13.4 °C -13.9 °C 34462.7 hPa WSW 11.9 km/h 7.2 km/h 94 % 0 mm 40.00 W/m2 SCT
07:23 -13.4 °C -13.9 °C 34466.1 hPa WSW 9 km/h 3.9 km/h 94 % 0 mm 35.00 W/m2 SCT
07:28 -13.4 °C -13.9 °C 34469.5 hPa WSW 18.2 km/h 12.4 km/h 94 % 0 mm 63.00 W/m2 SCT
07:33 -13.4 °C -13.9 °C 34466.1 hPa WSW 10.3 km/h 7.6 km/h 94 % 0 mm 95.00 W/m2 FEW
07:38 -13.4 °C -13.8 °C 34472.9 hPa WSW 15 km/h 10.6 km/h 94 % 0 mm 113.00 W/m2 CLR
07:43 -13.3 °C -13.8 °C 34476.3 hPa WSW 20.8 km/h 14 km/h 94 % 0 mm 128.00 W/m2 FEW
07:48 -13.3 °C -13.8 °C 34483 hPa WSW 18.2 km/h 12.7 km/h 94 % 0 mm 130.00 W/m2 CLR
07:53 -13.2 °C -13.7 °C 34483 hPa West 12.9 km/h 8.2 km/h 94 % 0 mm 134.00 W/m2 FEW
07:58 -13.2 °C -13.7 °C 34486.4 hPa WSW 18.2 km/h 14.2 km/h 94 % 0 mm 135.00 W/m2 FEW
08:04 -13.1 °C -13.6 °C 34486.4 hPa WSW 18.2 km/h 13.5 km/h 94 % 0 mm 151.00 W/m2 FEW
08:08 -13 °C -13.6 °C 34486.4 hPa SW 15.6 km/h 11.1 km/h 93 % 0 mm 118.00 W/m2 FEW
08:13 -12.9 °C -13.5 °C 34489.8 hPa SW 12.9 km/h 9.3 km/h 93 % 0 mm 163.00 W/m2 SCT
08:19 -12.8 °C -13.4 °C 34489.8 hPa WSW 15.6 km/h 13.5 km/h 93 % 0 mm 192.00 W/m2 FEW
08:23 -12.7 °C -13.4 °C 34489.8 hPa WSW 12.9 km/h 8.5 km/h 92 % 0 mm 206.00 W/m2 FEW
08:28 -12.6 °C -13.3 °C 34493.2 hPa West 15 km/h 6.4 km/h 92 % 0 mm 230.00 W/m2 FEW
08:34 -12.6 °C -13.3 °C 34493.2 hPa West 12.9 km/h 8.5 km/h 91 % 0 mm 251.00 W/m2 FEW
08:38 -12.4 °C -13.2 °C 34489.8 hPa West 12.9 km/h 9.7 km/h 91 % 0 mm 267.00 W/m2 CLR
08:43 -12.4 °C -13.2 °C 34493.2 hPa SW 15.6 km/h 9.7 km/h 90 % 0 mm 269.00 W/m2 CLR
08:49 -12.3 °C -13.3 °C 34496.6 hPa West 10.3 km/h 6.4 km/h 89 % 0 mm 262.00 W/m2 FEW
08:54 -12.3 °C -13.2 °C 34496.6 hPa WSW 18.2 km/h 14.2 km/h 89 % 0 mm 264.00 W/m2 FEW
08:58 -12.3 °C -13.2 °C 34500 hPa WSW 15 km/h 8.5 km/h 89 % 0 mm 301.00 W/m2 FEW
09:04 -12.1 °C -13.2 °C 34500 hPa WNW 18.2 km/h 10.3 km/h 88 % 0 mm 338.00 W/m2 FEW
09:09 -12.1 °C -13.1 °C 34500 hPa SW 17.9 km/h 7.6 km/h 88 % 0 mm 360.00 W/m2 CLR
09:13 -12 °C -13.1 °C 34500 hPa NW 17.9 km/h 10.3 km/h 88 % 0 mm 369.00 W/m2 CLR
09:19 -12 °C -13.1 °C 34500 hPa West 18.2 km/h 11.1 km/h 87 % 0 mm 381.00 W/m2 CLR
09:24 -11.8 °C -13 °C 34503.3 hPa West 18.2 km/h 13.5 km/h 87 % 0 mm 403.00 W/m2 CLR
09:29 -11.8 °C -13 °C 34500 hPa WSW 12.9 km/h 8.2 km/h 86 % 0 mm 420.00 W/m2 CLR
09:34 -11.7 °C -12.9 °C 34503.3 hPa West 15.6 km/h 12.2 km/h 86 % 0 mm 438.00 W/m2 CLR
09:39 -11.6 °C -12.9 °C 34506.7 hPa West 15 km/h 8.5 km/h 85 % 0 mm 471.00 W/m2 CLR
09:44 -11.6 °C -13 °C 34506.7 hPa WSW 17.9 km/h 13.7 km/h 84 % 0 mm 490.00 W/m2 FEW
09:49 -11.6 °C -13 °C 34510.1 hPa NW 9 km/h 5.6 km/h 84 % 0 mm 487.00 W/m2 FEW
09:54 -11.4 °C -12.9 °C 34510.1 hPa West 12.9 km/h 9.7 km/h 83 % 0 mm 499.00 W/m2 CLR
09:58 -11.3 °C -13.1 °C 34510.1 hPa WSW 18.2 km/h 14.8 km/h 81 % 0 mm 506.00 W/m2 CLR
10:03 -11.3 °C -13.1 °C 34510.1 hPa SW 15.6 km/h 12.4 km/h 81 % 0 mm 513.00 W/m2 CLR
10:08 -11.2 °C -13.1 °C 34513.5 hPa West 10.3 km/h 6.3 km/h 80 % 0 mm 524.00 W/m2 CLR
10:13 -11.1 °C -12.9 °C 34513.5 hPa WNW 15.6 km/h 9.3 km/h 80 % 0 mm 531.00 W/m2 CLR
10:19 -11.1 °C -13 °C 34513.5 hPa NW 12.9 km/h 7.7 km/h 79 % 0 mm 547.00 W/m2 CLR
10:23 -10.9 °C -12.7 °C 34513.5 hPa West 18.2 km/h 13.5 km/h 80 % 0 mm 552.00 W/m2 CLR
10:28 -10.9 °C -12.7 °C 34516.9 hPa WSW 12.9 km/h 3.1 km/h 80 % 0 mm 552.00 W/m2 CLR
10:33 -10.8 °C -12.8 °C 34516.9 hPa West 10.3 km/h 6.3 km/h 79 % 0 mm 545.00 W/m2 CLR
10:38 -10.7 °C -12.7 °C 34516.9 hPa SW 10.3 km/h 5.1 km/h 79 % 0 mm 547.00 W/m2 CLR
10:43 -10.6 °C -12.7 °C 34516.9 hPa West 18.2 km/h 13.7 km/h 78 % 0 mm 540.00 W/m2 FEW
10:48 -10.6 °C -12.8 °C 34520.3 hPa WSW 18.2 km/h 10.6 km/h 77 % 0 mm 520.00 W/m2 FEW
10:54 -10.5 °C -12.6 °C 34516.9 hPa West 12.9 km/h 7.6 km/h 78 % 0 mm 519.00 W/m2 FEW
10:58 -10.3 °C -12.4 °C 34516.9 hPa SW 15.6 km/h 10.1 km/h 78 % 0 mm 515.00 W/m2 FEW
11:03 -10.3 °C -12.7 °C 34516.9 hPa West 18.2 km/h 10.1 km/h 75 % 0 mm 508.00 W/m2 FEW
11:09 -10.3 °C -12.6 °C 34513.5 hPa SW 11.9 km/h 7.7 km/h 76 % 0 mm 520.00 W/m2 FEW
11:13 -10.2 °C -12.7 °C 34513.5 hPa West 12.9 km/h 8.5 km/h 74 % 0 mm 534.00 W/m2 FEW
11:18 -10.1 °C -12.6 °C 34513.5 hPa North 9 km/h 2.9 km/h 74 % 0 mm 557.00 W/m2 FEW
11:24 -9.8 °C -12.5 °C 34513.5 hPa WSW 18.2 km/h 10.3 km/h 73 % 0 mm 480.00 W/m2 FEW
11:29 -9.9 °C -12.8 °C 34513.5 hPa SW 20.9 km/h 11.6 km/h 71 % 0 mm 621.00 W/m2 FEW
11:33 -9.8 °C -12.7 °C 34510.1 hPa NW 6 km/h 3.9 km/h 71 % 0 mm 656.00 W/m2 FEW
11:39 -9.8 °C -13 °C 34506.7 hPa WNW 9 km/h 3.4 km/h 68 % 0 mm 698.00 W/m2 CLR
11:44 -9.7 °C -12.9 °C 34510.1 hPa WSW 12.9 km/h 3.9 km/h 68 % 0 mm 721.00 W/m2 CLR
11:48 -9.7 °C -13.2 °C 34513.5 hPa SW 15.6 km/h 10.1 km/h 66 % 0 mm 733.00 W/m2 CLR
11:54 -9.6 °C -13.4 °C 34513.5 hPa West 17.9 km/h 9.8 km/h 63 % 0 mm 751.00 W/m2 CLR
11:59 -9.5 °C -13.4 °C 34510.1 hPa WSW 3.1 km/h 1.3 km/h 63 % 0 mm 742.00 W/m2 CLR
12:03 -9.4 °C -13.8 °C 34510.1 hPa West 10.3 km/h 6 km/h 59 % 0 mm 754.00 W/m2 CLR
12:09 -9.3 °C -13.6 °C 34513.5 hPa WSW 10.3 km/h 6.3 km/h 60 % 0 mm 763.00 W/m2 CLR
12:14 -9.3 °C -13.3 °C 34513.5 hPa WNW 9 km/h 4.7 km/h 62 % 0 mm 759.00 W/m2 CLR
12:19 -9.3 °C -13.7 °C 34513.5 hPa North 12.9 km/h 6.8 km/h 59 % 0 mm 768.00 W/m2 CLR
12:24 -9.4 °C -13.3 °C 34513.5 hPa NNE 9 km/h 4.7 km/h 63 % 0 mm 770.00 W/m2 CLR
12:29 -9.4 °C -14.1 °C 34513.5 hPa NNE 6 km/h 2.6 km/h 57 % 0 mm 791.00 W/m2 CLR
12:33 -9.2 °C -13.8 °C 34510.1 hPa ENE 10.3 km/h 6 km/h 58 % 0 mm 789.00 W/m2 CLR
12:38 -9.2 °C -13.9 °C 34506.7 hPa East 12.9 km/h 8.2 km/h 57 % 0 mm 793.00 W/m2 CLR
12:43 -9 °C -13.4 °C 34503.3 hPa ENE 10.3 km/h 6.8 km/h 59 % 0 mm 793.00 W/m2 CLR
12:48 -9 °C -13.4 °C 34506.7 hPa NE 15 km/h 9.3 km/h 59 % 0 mm 793.00 W/m2 CLR
12:54 -9.1 °C -13.8 °C 34506.7 hPa SE 9 km/h 6.3 km/h 57 % 0 mm 802.00 W/m2 CLR
12:58 -9 °C -13.6 °C 34506.7 hPa ENE 10.3 km/h 7.7 km/h 58 % 0 mm 800.00 W/m2 CLR
13:03 -8.9 °C -13.7 °C 34506.7 hPa NNE 9 km/h 6.4 km/h 57 % 0 mm 807.00 W/m2 CLR
13:09 -8.8 °C -13.7 °C 34503.3 hPa ESE 10.3 km/h 5.6 km/h 56 % 0 mm 805.00 W/m2 CLR
13:13 -8.6 °C -13.7 °C 34500 hPa NW 12.9 km/h 11.1 km/h 55 % 0 mm 807.00 W/m2 CLR
13:18 -8.7 °C -14.2 °C 34496.6 hPa North 10.3 km/h 6.9 km/h 52 % 0 mm 805.00 W/m2 CLR
13:24 -8.5 °C -13.6 °C 34500 hPa SE 6 km/h 2.6 km/h 55 % 0 mm 793.00 W/m2 CLR
13:29 -8.5 °C -14.2 °C 34496.6 hPa North 18.2 km/h 13.7 km/h 51 % 0 mm 793.00 W/m2 CLR
13:33 -8.7 °C -14.6 °C 34496.6 hPa NNW 11.9 km/h 7.7 km/h 49 % 0 mm 791.00 W/m2 CLR
13:38 -8.5 °C -14.3 °C 34493.2 hPa NNE 12.9 km/h 9.7 km/h 50 % 0 mm 802.00 W/m2 CLR
13:44 -8.4 °C -14.1 °C 34493.2 hPa North 12.9 km/h 9 km/h 51 % 0 mm 802.00 W/m2 CLR
13:48 -8.4 °C -13.9 °C 34500 hPa NNE 12.9 km/h 5.6 km/h 52 % 0 mm 809.00 W/m2 CLR
13:53 -8.4 °C -13.6 °C 34493.2 hPa NE 10.3 km/h 7.6 km/h 54 % 0 mm 795.00 W/m2 CLR
13:59 -8.2 °C -14.2 °C 34496.6 hPa SE 6 km/h 3.1 km/h 49 % 0 mm 831.00 W/m2 CLR
14:03 -8.3 °C -13.9 °C 34493.2 hPa NE 10.3 km/h 6.3 km/h 51 % 0 mm 130.00 W/m2 FEW
14:08 -8.3 °C -13.8 °C 34493.2 hPa East 20.9 km/h 8.9 km/h 52 % 0 mm 805.00 W/m2 SCT
14:14 -8.3 °C -13.8 °C 34489.8 hPa ESE 9 km/h 3.7 km/h 52 % 0 mm 798.00 W/m2 FEW
14:19 -8.3 °C -13.5 °C 34489.8 hPa North 6 km/h 2.6 km/h 54 % 0 mm 810.00 W/m2 CLR
14:23 -8.2 °C -13.8 °C 34493.2 hPa SE 23.8 km/h 17.4 km/h 51 % 0 mm 812.00 W/m2 CLR
14:29 -8.2 °C -14 °C 34493.2 hPa ESE 18.2 km/h 10.3 km/h 50 % 0 mm 830.00 W/m2 CLR
14:34 -8.1 °C -13.9 °C 34489.8 hPa SSE 26.9 km/h 13.5 km/h 50 % 0 mm 844.00 W/m2 CLR
14:38 -8.2 °C -14.6 °C 34486.4 hPa SE 20.8 km/h 14.8 km/h 47 % 0 mm 807.00 W/m2 CLR
14:44 -8.1 °C -14.4 °C 34486.4 hPa SSW 11.9 km/h 4.3 km/h 47 % 0 mm 810.00 W/m2 CLR
14:49 -7.9 °C -14.2 °C 34489.8 hPa ESE 18.2 km/h 11.9 km/h 48 % 0 mm 821.00 W/m2 CLR
14:54 -7.9 °C -14.3 °C 34486.4 hPa SSE 17.9 km/h 6 km/h 47 % 0 mm 826.00 W/m2 CLR
14:59 -7.9 °C -14.1 °C 34483 hPa ESE 7.7 km/h 1.8 km/h 48 % 0 mm 802.00 W/m2 CLR
15:03 -7.8 °C -14 °C 34486.4 hPa SE 32.8 km/h 21.2 km/h 48 % 0 mm 805.00 W/m2 CLR
15:08 -7.8 °C -14.2 °C 34486.4 hPa ESE 26.9 km/h 13.5 km/h 47 % 0 mm 791.00 W/m2 CLR
15:13 -7.9 °C -14.3 °C 34486.4 hPa ESE 23.8 km/h 13.2 km/h 47 % 0 mm 773.00 W/m2 CLR
15:18 -7.8 °C -13.8 °C 34479.6 hPa NNE 9 km/h 6 km/h 49 % 0 mm 786.00 W/m2 CLR
15:23 -7.8 °C -13.7 °C 34479.6 hPa SSE 18.2 km/h 11.6 km/h 50 % 0 mm 735.00 W/m2 CLR
15:29 -8 °C -13.7 °C 34476.3 hPa SE 12.9 km/h 8.2 km/h 51 % 0 mm 153.00 W/m2 FEW
15:33 -8.2 °C -13.8 °C 34476.3 hPa South 10.3 km/h 4.7 km/h 51 % 0 mm 118.00 W/m2 SCT
15:38 -8.3 °C -14 °C 34476.3 hPa SE 12.9 km/h 8.2 km/h 51 % 0 mm 737.00 W/m2 BKN
15:44 -8.2 °C -13.8 °C 34472.9 hPa SE 9 km/h 3.4 km/h 51 % 0 mm 724.00 W/m2 FEW
15:48 -7.9 °C -13.7 °C 34472.9 hPa SE 15.6 km/h 11.1 km/h 51 % 0 mm 714.00 W/m2 CLR
15:53 -8 °C -14 °C 34466.1 hPa SE 9 km/h 2.1 km/h 49 % 0 mm 712.00 W/m2 CLR
15:59 -7.9 °C -14.1 °C 34462.7 hPa NE 10.3 km/h 3.7 km/h 48 % 0 mm 691.00 W/m2 CLR
16:03 -7.9 °C -13.8 °C 34462.7 hPa SSE 20.9 km/h 10.9 km/h 50 % 0 mm 691.00 W/m2 CLR
16:08 -8 °C -13.9 °C 34462.7 hPa SE 18.2 km/h 11.6 km/h 50 % 0 mm 691.00 W/m2 CLR
16:14 -8.2 °C -14.2 °C 34462.7 hPa SE 15.6 km/h 11.1 km/h 49 % 0 mm 652.00 W/m2 CLR
16:19 -8.1 °C -14.1 °C 34459.3 hPa SSW 9 km/h 3.9 km/h 49 % 0 mm 659.00 W/m2 CLR
16:23 -8 °C -13.8 °C 34459.3 hPa SE 10.3 km/h 7.7 km/h 50 % 0 mm 656.00 W/m2 CLR
16:28 -7.8 °C -13.7 °C 34459.3 hPa SSE 33.6 km/h 24.3 km/h 50 % 0 mm 608.00 W/m2 CLR
16:34 -7.9 °C -13.9 °C 34452.6 hPa SSE 20.9 km/h 16.3 km/h 49 % 0 mm 654.00 W/m2 CLR
16:38 -7.9 °C -14 °C 34449.2 hPa SSE 10.3 km/h 6.8 km/h 49 % 0 mm 640.00 W/m2 CLR
16:43 -7.9 °C -13.9 °C 34452.6 hPa SE 18.2 km/h 11.9 km/h 49 % 0 mm 596.00 W/m2 CLR
16:49 -7.9 °C -13.9 °C 34445.8 hPa SE 29.8 km/h 14 km/h 49 % 0 mm 571.00 W/m2 CLR
16:54 -7.9 °C -13.8 °C 34449.2 hPa ESE 29.8 km/h 21.6 km/h 50 % 0 mm 547.00 W/m2 CLR
16:58 -7.9 °C -13.9 °C 34449.2 hPa SSE 15.6 km/h 12.2 km/h 49 % 0 mm 529.00 W/m2 CLR
17:04 -7.9 °C -14.2 °C 34452.6 hPa SE 20.9 km/h 15.8 km/h 48 % 0 mm 527.00 W/m2 CLR
17:09 -7.9 °C -13.9 °C 34449.2 hPa SE 18.2 km/h 9.3 km/h 49 % 0 mm 503.00 W/m2 CLR
17:13 -7.9 °C -14.1 °C 34452.6 hPa ESE 10.3 km/h 6 km/h 48 % 0 mm 483.00 W/m2 CLR
17:19 -7.9 °C -14.1 °C 34449.2 hPa East 28.5 km/h 18.3 km/h 48 % 0 mm 480.00 W/m2 CLR
17:24 -8 °C -14.4 °C 34449.2 hPa SSE 15.6 km/h 10.9 km/h 47 % 0 mm 469.00 W/m2 CLR
17:29 -8.1 °C -14.1 °C 34452.6 hPa SE 15.6 km/h 10.6 km/h 49 % 0 mm 452.00 W/m2 CLR
17:34 -8 °C -14 °C 34452.6 hPa SE 10.3 km/h 6.4 km/h 49 % 0 mm 431.00 W/m2 CLR
17:38 -7.9 °C -13.9 °C 34452.6 hPa SE 9 km/h 5.1 km/h 49 % 0 mm 411.00 W/m2 CLR
17:43 -7.9 °C -14.2 °C 34449.2 hPa SE 11.9 km/h 6.4 km/h 48 % 0 mm 397.00 W/m2 CLR
17:48 -7.9 °C -14 °C 34442.4 hPa ESE 11.9 km/h 6.3 km/h 49 % 0 mm 383.00 W/m2 CLR
17:53 -7.9 °C -14.3 °C 34445.8 hPa ESE 11.9 km/h 6.9 km/h 47 % 0 mm 322.00 W/m2 CLR
17:58 -7.9 °C -13.9 °C 34449.2 hPa ESE 28.5 km/h 14.8 km/h 49 % 0 mm 313.00 W/m2 CLR
18:03 -7.9 °C -14 °C 34445.8 hPa SE 18.2 km/h 11.9 km/h 49 % 0 mm 329.00 W/m2 CLR
18:08 -8 °C -13.8 °C 34452.6 hPa SE 17.9 km/h 9.7 km/h 50 % 0 mm 320.00 W/m2 CLR
18:13 -8.1 °C -13.9 °C 34449.2 hPa ESE 11.9 km/h 6.9 km/h 50 % 0 mm 301.00 W/m2 CLR
18:19 -8 °C -13.7 °C 34449.2 hPa ESE 10.3 km/h 8 km/h 51 % 0 mm 281.00 W/m2 CLR
18:23 -8.1 °C -13.9 °C 34449.2 hPa SE 12.9 km/h 10.3 km/h 50 % 0 mm 269.00 W/m2 CLR
18:28 -8.1 °C -13.7 °C 34449.2 hPa ESE 20.9 km/h 6.3 km/h 52 % 0 mm 251.00 W/m2 CLR
18:34 -8.1 °C -13.8 °C 34452.6 hPa SE 10.3 km/h 6.8 km/h 51 % 0 mm 236.00 W/m2 CLR
18:38 -8.2 °C -14 °C 34452.6 hPa SE 10.3 km/h 6.8 km/h 50 % 0 mm 221.00 W/m2 CLR
18:43 -8.2 °C -13.6 °C 34449.2 hPa SE 23.8 km/h 11.4 km/h 53 % 0 mm 204.00 W/m2 CLR
18:49 -8.2 °C -13.8 °C 34449.2 hPa SE 18.2 km/h 13.5 km/h 52 % 0 mm 185.00 W/m2 CLR
18:54 -8.3 °C -13.7 °C 34449.2 hPa SE 15.6 km/h 10.1 km/h 53 % 0 mm 165.00 W/m2 CLR
18:58 -8.3 °C -13.5 °C 34449.2 hPa ESE 12.9 km/h 5 km/h 54 % 0 mm 151.00 W/m2 CLR
19:04 -8.3 °C -13.7 °C 34445.8 hPa ESE 10.3 km/h 7.7 km/h 53 % 0 mm 134.00 W/m2 CLR
19:09 -8.4 °C -13.6 °C 34445.8 hPa SE 12.9 km/h 8.5 km/h 54 % 0 mm 116.00 W/m2 CLR
19:13 -8.4 °C -13.6 °C 34442.4 hPa SE 9 km/h 6.8 km/h 54 % 0 mm 102.00 W/m2 CLR
19:19 -8.4 °C -13.5 °C 34439 hPa SE 10.3 km/h 5.5 km/h 55 % 0 mm 84.00 W/m2 CLR
19:24 -8.5 °C -13.4 °C 34439 hPa SE 9 km/h 4.2 km/h 56 % 0 mm 72.00 W/m2 CLR
19:28 -8.6 °C -13.4 °C 34442.4 hPa SSE 12.9 km/h 5.5 km/h 56 % 0 mm 62.00 W/m2 CLR
19:33 -8.6 °C -13.5 °C 34439 hPa SE 15.6 km/h 9.3 km/h 56 % 0 mm 47.00 W/m2 CLR
19:39 -8.7 °C -13.7 °C 34442.4 hPa SE 10.3 km/h 9 km/h 55 % 0 mm 30.00 W/m2 CLR
19:44 -8.7 °C -13.7 °C 34445.8 hPa SE 9 km/h 4.7 km/h 55 % 0 mm 18.00 W/m2 CLR
19:48 -8.7 °C -13.7 °C 34445.8 hPa SE 9 km/h 3.4 km/h 55 % 0 mm 14.00 W/m2 CLR
19:54 -8.8 °C -13.7 °C 34449.2 hPa SE 6 km/h 2.9 km/h 56 % 0 mm 11.00 W/m2 CLR
19:59 -8.8 °C -13.6 °C 34449.2 hPa SE 9 km/h 5.6 km/h 57 % 0 mm 7.00 W/m2 CLR
20:03 -8.9 °C -13.5 °C 34452.6 hPa SE 9 km/h 5.1 km/h 58 % 0 mm 5.00 W/m2 CLR
20:09 -9 °C -13.3 °C 34452.6 hPa SE 9 km/h 5.6 km/h 60 % 0 mm 0.00 W/m2 CLR
20:14 -9.1 °C -13.4 °C 34452.6 hPa SE 9 km/h 5.6 km/h 60 % 0 mm 0.00 W/m2 CLR
20:18 -9.2 °C -13.4 °C 34449.2 hPa SE 9 km/h 4.3 km/h 60 % 0 mm 0.00 W/m2 CLR
20:23 -9.2 °C -13.4 °C 34452.6 hPa SE 6 km/h 3.4 km/h 61 % 0 mm 0.00 W/m2 CLR
20:28 -9.3 °C -13.3 °C 34452.6 hPa SE 6 km/h 2.3 km/h 62 % 0 mm 0.00 W/m2 CLR
20:33 -9.3 °C -13.4 °C 34455.9 hPa SE 6 km/h 3.9 km/h 62 % 0 mm 0.00 W/m2 CLR
20:38 -9.4 °C -13.4 °C 34459.3 hPa SE 7.7 km/h 5.1 km/h 62 % 0 mm 0.00 W/m2 CLR
20:43 -9.4 °C -13.4 °C 34455.9 hPa SE 6 km/h 4.3 km/h 62 % 0 mm 0.00 W/m2 CLR
20:48 -9.5 °C -13.4 °C 34462.7 hPa SE 6 km/h 2.9 km/h 63 % 0 mm 0.00 W/m2 CLR
20:54 -9.6 °C -13.3 °C 34462.7 hPa SE 6 km/h 4.3 km/h 64 % 0 mm 0.00 W/m2 CLR
20:58 -9.6 °C -13.3 °C 34462.7 hPa SE 5.1 km/h 2.3 km/h 64 % 0 mm 0.00 W/m2 CLR
21:03 -9.6 °C -13.4 °C 34466.1 hPa SE 5.1 km/h 1.8 km/h 64 % 0 mm 0.00 W/m2 CLR
21:09 -9.7 °C -13.4 °C 34466.1 hPa SE 3.1 km/h 1.6 km/h 64 % 0 mm 0.00 W/m2 CLR
21:13 -9.7 °C -13.4 °C 34466.1 hPa Calm     64 % 0 mm 0.00 W/m2 CLR
21:18 -9.8 °C -13.4 °C 34466.1 hPa Calm     65 % 0 mm 0.00 W/m2 CLR
21:24 -9.8 °C -13.3 °C 34469.5 hPa Calm     66 % 0 mm 0.00 W/m2 CLR
21:28 -9.9 °C -13.3 °C 34466.1 hPa Calm     67 % 0 mm 0.00 W/m2 CLR
21:33 -10.1 °C -13.4 °C 34469.5 hPa Calm     67 % 0 mm 0.00 W/m2 CLR
21:39 -10.2 °C -13.3 °C 34469.5 hPa Calm     69 % 0 mm 0.00 W/m2 CLR
21:44 -10.3 °C -13.3 °C 34469.5 hPa SE 2.6 km/h 0.3 km/h 70 % 0 mm 0.00 W/m2 CLR
21:48 -10.3 °C -13.5 °C 34476.3 hPa SE 5.1 km/h 2.6 km/h 68 % 0 mm 0.00 W/m2 CLR
21:54 -10.2 °C -13.4 °C 34476.3 hPa SE 6 km/h 4.3 km/h 68 % 0 mm 0.00 W/m2 CLR
21:59 -10.2 °C -13.4 °C 34476.3 hPa Calm     68 % 0 mm 0.00 W/m2 CLR
22:03 -10.2 °C -13.4 °C 34476.3 hPa Calm     68 % 0 mm 0.00 W/m2 CLR
22:09 -10.3 °C -13.3 °C 34476.3 hPa Calm     70 % 0 mm 0.00 W/m2 CLR
22:14 -10.4 °C -13.3 °C 34476.3 hPa Calm     70 % 0 mm 0.00 W/m2 CLR
22:18 -10.4 °C -13.3 °C 34476.3 hPa Calm     71 % 0 mm 0.00 W/m2 CLR
22:24 -10.4 °C -13.2 °C 34476.3 hPa Calm     72 % 0 mm 0.00 W/m2 CLR
22:29 -10.5 °C -13.4 °C 34479.6 hPa Calm     71 % 0 mm 0.00 W/m2 CLR
22:34 -10.6 °C -13.4 °C 34476.3 hPa Calm     71 % 0 mm 0.00 W/m2 CLR
22:39 -10.6 °C -13.4 °C 34476.3 hPa Calm     71 % 0 mm 0.00 W/m2 CLR
22:44 -10.6 °C -13.4 °C 34479.6 hPa Calm     71 % 0 mm 0.00 W/m2 CLR
22:49 -10.6 °C -13.4 °C 34479.6 hPa SE 3.1 km/h   71 % 0 mm 0.00 W/m2 CLR
22:52 -10.6 °C -13.4 °C 34479.6 hPa SE 5.1 km/h 2.6 km/h 71 % 0 mm 0.00 W/m2 CLR
22:58 -10.6 °C -13.3 °C 34479.6 hPa Calm     72 % 0 mm 0.00 W/m2 CLR
23:03 -10.7 °C -13.3 °C 34479.6 hPa Calm     73 % 0 mm 0.00 W/m2 CLR
23:09 -10.7 °C -13.2 °C 34479.6 hPa Calm     74 % 0 mm 0.00 W/m2 CLR
23:13 -10.9 °C -13.3 °C 34479.6 hPa Calm     75 % 0 mm 0.00 W/m2 CLR
23:18 -11 °C -13.2 °C 34479.6 hPa Calm     77 % 0 mm 0.00 W/m2 CLR
23:23 -11.1 °C -13.2 °C 34479.6 hPa Calm     78 % 0 mm 0.00 W/m2 CLR
23:28 -11.2 °C -13.3 °C 34476.3 hPa Calm     78 % 0 mm 0.00 W/m2 CLR
23:33 -11.3 °C -13.2 °C 34479.6 hPa Calm     79 % 0 mm 0.00 W/m2 CLR
23:38 -11.3 °C -13.3 °C 34479.6 hPa Calm     79 % 0 mm 0.00 W/m2 CLR
23:44 -11.4 °C -13.3 °C 34479.6 hPa Calm     79 % 0 mm 0.00 W/m2 CLR
23:48 -11.4 °C -13.3 °C 34479.6 hPa Calm     80 % 0 mm 0.00 W/m2 CLR
23:53 -11.5 °C -13.4 °C 34479.6 hPa Calm     80 % 0 mm 0.00 W/m2 CLR
23:59 -11.6 °C -13.3 °C 34479.6 hPa Calm     81 % 0 mm 0.00 W/m2 CLR
Juneau County Weather
Compliments of Weather Underground - 3.5 mb